Time;durP1;ratioP1;P1;durP2;ratioP2;P2;SDS_P1;SDS_P2;PMS_P1;PMS_P2;Temp;Humidity;BMP_temperature;BMP_pressure;BME280_temperature;BME280_humidity;BME280_pressure;Samples;Min_cycle;Max_cycle;Signal;HPM_P1;HPM_P2
2022/10/19 00:01:15;;;;;;;3.67;0.40;;;12.00;99.90;;;;;;5053371;28;20045;-73
2022/10/19 00:03:43;;;;;;;3.20;0.60;;;12.00;99.90;;;;;;5054663;28;20053;-72
2022/10/19 00:06:17;;;;;;;4.57;0.50;;;12.00;99.90;;;;;;5054637;28;20092;-73
2022/10/19 00:08:43;;;;;;;2.78;0.50;;;12.00;99.90;;;;;;5070324;28;20049;-73
2022/10/19 00:11:09;;;;;;;2.88;0.40;;;11.90;99.90;;;;;;5054499;28;20045;-73
2022/10/19 00:13:37;;;;;;;2.22;0.52;;;11.90;99.90;;;;;;5054867;28;20434;-73
2022/10/19 00:16:08;;;;;;;4.15;0.50;;;12.00;99.90;;;;;;5053405;28;20052;-73
2022/10/19 00:18:34;;;;;;;3.30;0.65;;;12.00;99.90;;;;;;5054293;28;20107;-73
2022/10/19 00:21:05;;;;;;;2.25;0.47;;;11.60;99.90;;;;;;5069376;28;20049;-73
2022/10/19 00:23:31;;;;;;;3.05;0.70;;;12.10;99.90;;;;;;5054267;28;20045;-73
2022/10/19 00:25:57;;;;;;;3.30;0.50;;;12.00;99.90;;;;;;5070005;28;20057;-73
2022/10/19 00:28:23;;;;;;;3.20;0.40;;;12.00;99.90;;;;;;5069826;28;20059;-73
2022/10/19 00:30:49;;;;;;;6.05;0.50;;;12.00;99.90;;;;;;5052567;28;20508;-73
2022/10/19 00:33:20;;;;;;;2.38;0.40;;;12.00;99.90;;;;;;5053164;28;20084;-73
2022/10/19 00:35:49;;;;;;;1.75;0.40;;;11.90;99.90;;;;;;5070026;28;20056;-73
2022/10/19 00:38:19;;;;;;;1.77;0.50;;;12.00;99.90;;;;;;5053902;28;20123;-73
2022/10/19 00:40:46;;;;;;;3.75;0.50;;;12.00;99.90;;;;;;5054024;28;20080;-72
2022/10/19 00:43:24;;;;;;;1.63;0.40;;;12.00;99.90;;;;;;5036378;28;20171;-73
2022/10/19 00:45:51;;;;;;;3.90;0.45;;;12.30;99.90;;;;;;5053877;28;20041;-73
2022/10/19 00:48:24;;;;;;;3.40;0.45;;;12.00;99.90;;;;;;5052690;28;20049;-73
2022/10/19 00:50:52;;;;;;;2.78;0.30;;;12.00;99.90;;;;;;5053301;28;20047;-73
2022/10/19 00:53:19;;;;;;;3.35;0.60;;;12.10;99.90;;;;;;5053761;28;20056;-73
2022/10/19 00:55:45;;;;;;;2.83;0.50;;;12.00;99.90;;;;;;5053413;28;20048;-73
2022/10/19 00:58:11;;;;;;;4.78;0.40;;;12.10;99.90;;;;;;5053977;28;20041;-73
2022/10/19 01:00:37;;;;;;;3.15;0.60;;;12.10;99.90;;;;;;5052439;28;20053;-73
2022/10/19 01:03:04;;;;;;;1.48;0.57;;;12.20;99.90;;;;;;5053653;28;20051;-73
2022/10/19 01:05:31;;;;;;;1.63;0.50;;;12.10;99.90;;;;;;5035890;28;20049;-73
2022/10/19 01:07:57;;;;;;;4.15;0.50;;;12.10;99.90;;;;;;5052253;28;20085;-73
2022/10/19 01:10:37;;;;;;;0.98;0.50;;;12.10;99.90;;;;;;5053532;28;20040;-74
2022/10/19 01:13:36;;;;;;;3.03;0.50;;;12.10;99.90;;;;;;5035404;28;20080;-73
2022/10/19 01:16:14;;;;;;;3.10;0.40;;;12.10;99.90;;;;;;5052022;28;20056;-73
2022/10/19 01:19:01;;;;;;;5.88;0.50;;;12.10;99.90;;;;;;5053313;28;20053;-73
2022/10/19 01:21:37;;;;;;;1.73;0.50;;;12.20;99.90;;;;;;5036040;28;20106;-73
2022/10/19 01:24:34;;;;;;;3.88;0.60;;;12.20;99.90;;;;;;5053447;28;20049;-73
2022/10/19 01:27:21;;;;;;;3.50;0.43;;;12.30;99.90;;;;;;5044442;28;20045;-73
2022/10/19 01:30:01;;;;;;;3.78;0.40;;;12.10;99.90;;;;;;5053765;28;20051;-73
2022/10/19 01:32:50;;;;;;;3.88;0.60;;;12.10;99.90;;;;;;5052098;28;20056;-73
2022/10/19 01:35:23;;;;;;;3.45;0.70;;;12.10;99.90;;;;;;5053328;28;20052;-73
2022/10/19 01:37:51;;;;;;;5.38;0.60;;;12.10;99.90;;;;;;5052186;28;20049;-73
2022/10/19 01:40:20;;;;;;;3.70;0.60;;;12.20;99.90;;;;;;5052285;28;20052;-73
2022/10/19 01:43:08;;;;;;;3.95;0.50;;;12.10;99.90;;;;;;5053266;28;20081;-74
2022/10/19 01:46:21;;;;;;;1.92;0.50;;;12.10;99.90;;;;;;5053933;28;20045;-74
2022/10/19 01:49:09;;;;;;;3.73;0.50;;;12.00;99.90;;;;;;5014904;28;20085;-73
2022/10/19 01:51:41;;;;;;;3.13;0.50;;;12.20;99.90;;;;;;5015096;28;20436;-73
2022/10/19 01:54:11;;;;;;;2.72;0.50;;;12.10;99.90;;;;;;5045155;28;20520;-73
2022/10/19 01:56:38;;;;;;;4.38;0.52;;;12.00;99.90;;;;;;5051927;28;20053;-73
2022/10/19 01:59:06;;;;;;;3.75;0.60;;;12.10;99.90;;;;;;5051956;28;20086;-74
2022/10/19 02:01:36;;;;;;;2.90;0.73;;;12.00;99.90;;;;;;5053059;28;20053;-73
2022/10/19 02:04:03;;;;;;;2.38;0.55;;;12.20;99.90;;;;;;5052030;28;20071;-74
2022/10/19 02:06:29;;;;;;;3.72;0.55;;;12.00;99.90;;;;;;5053038;28;20045;-73
2022/10/19 02:08:55;;;;;;;3.88;0.60;;;12.00;99.90;;;;;;5055584;28;20051;-73
2022/10/19 02:11:22;;;;;;;1.13;0.47;;;12.10;99.90;;;;;;5057076;28;20465;-73
2022/10/19 02:13:58;;;;;;;7.35;0.90;;;12.00;99.90;;;;;;5056976;28;20053;-74
2022/10/19 02:16:32;;;;;;;4.30;0.70;;;12.10;99.90;;;;;;5057266;28;20059;-73
2022/10/19 02:19:00;;;;;;;3.95;0.70;;;12.20;99.90;;;;;;5056569;28;20041;-74
2022/10/19 02:21:26;;;;;;;1.20;0.50;;;12.10;99.90;;;;;;5055748;28;20049;-73
2022/10/19 02:23:52;;;;;;;1.77;0.50;;;12.00;99.90;;;;;;5055298;28;20485;-73
2022/10/19 02:26:18;;;;;;;3.30;0.73;;;12.00;99.90;;;;;;5056261;28;20045;-73
2022/10/19 02:28:44;;;;;;;4.13;0.50;;;12.00;99.90;;;;;;5055891;28;20097;-74
2022/10/19 02:31:10;;;;;;;4.50;0.52;;;12.10;99.90;;;;;;5056377;28;20228;-74
2022/10/19 02:33:36;;;;;;;3.65;0.57;;;12.00;99.90;;;;;;5055594;28;20048;-74
2022/10/19 02:36:02;;;;;;;4.90;0.82;;;12.00;99.90;;;;;;5056355;28;20397;-74
2022/10/19 02:38:28;;;;;;;3.15;0.65;;;12.00;99.90;;;;;;5056166;28;20041;-73
2022/10/19 02:41:14;;;;;;;4.03;0.55;;;11.90;99.90;;;;;;5055255;28;20048;-73
2022/10/19 02:43:42;;;;;;;4.00;0.60;;;11.90;99.90;;;;;;5056199;28;20481;-73
2022/10/19 02:46:36;;;;;;;5.43;0.73;;;12.00;99.90;;;;;;5055030;28;20045;-73
2022/10/19 02:49:04;;;;;;;3.60;0.90;;;11.90;99.90;;;;;;5054931;28;20098;-74
2022/10/19 02:51:33;;;;;;;3.78;0.75;;;12.10;99.90;;;;;;5056159;28;20460;-73
2022/10/19 02:53:58;;;;;;;3.75;0.50;;;11.90;99.90;;;;;;5055979;28;20099;-73
2022/10/19 02:56:24;;;;;;;2.67;0.70;;;11.80;99.90;;;;;;5055203;28;20041;-73
2022/10/19 02:58:50;;;;;;;2.60;0.52;;;11.80;99.90;;;;;;5054655;28;20496;-73
2022/10/19 03:01:16;;;;;;;5.60;0.57;;;12.10;99.90;;;;;;5054680;28;20048;-73
2022/10/19 03:03:41;;;;;;;4.70;0.52;;;11.80;99.90;;;;;;5038607;28;20049;-73
2022/10/19 03:06:07;;;;;;;3.15;0.45;;;11.90;99.90;;;;;;5055722;28;20053;-73
2022/10/19 03:08:33;;;;;;;2.25;0.45;;;11.90;99.90;;;;;;5054968;28;20048;-73
2022/10/19 03:10:59;;;;;;;5.43;0.70;;;11.80;99.90;;;;;;5055975;28;20127;-74
2022/10/19 03:13:25;;;;;;;7.78;1.15;;;11.90;99.90;;;;;;5054343;28;20049;-74
2022/10/19 03:15:51;;;;;;;3.92;0.77;;;11.80;99.90;;;;;;5055564;28;20052;-74
2022/10/19 03:18:16;;;;;;;7.70;0.70;;;11.90;99.90;;;;;;5037214;28;20087;-74
2022/10/19 03:20:42;;;;;;;2.63;0.57;;;11.80;99.90;;;;;;5055000;28;20127;-74
2022/10/19 03:23:08;;;;;;;3.88;0.80;;;11.90;99.90;;;;;;5055461;28;20464;-74
2022/10/19 03:25:34;;;;;;;3.65;0.50;;;12.00;99.90;;;;;;5054432;28;20045;-73
2022/10/19 03:27:59;;;;;;;2.85;0.65;;;12.00;99.90;;;;;;5053816;28;20045;-74
2022/10/19 03:30:25;;;;;;;6.43;0.60;;;11.90;99.90;;;;;;5055347;28;20057;-73
2022/10/19 03:32:51;;;;;;;5.13;0.57;;;11.90;99.90;;;;;;5055343;28;20049;-74
2022/10/19 03:35:16;;;;;;;4.78;0.73;;;11.80;99.90;;;;;;5055796;28;20076;-73
2022/10/19 03:37:42;;;;;;;5.75;0.70;;;11.90;99.90;;;;;;5054836;28;20045;-74
2022/10/19 03:40:08;;;;;;;6.78;0.68;;;11.90;99.90;;;;;;5055118;28;20049;-74
2022/10/19 03:42:34;;;;;;;4.47;0.57;;;11.80;99.90;;;;;;5055391;28;20083;-74
2022/10/19 03:45:00;;;;;;;4.15;0.82;;;10.90;99.90;;;;;;5037300;28;20045;-74
2022/10/19 03:47:25;;;;;;;7.20;0.80;;;11.80;99.90;;;;;;5053779;28;20040;-74
2022/10/19 03:49:51;;;;;;;5.35;0.63;;;12.10;99.90;;;;;;5053169;28;20049;-74
2022/10/19 03:52:17;;;;;;;6.88;0.70;;;11.70;99.90;;;;;;5053368;28;20048;-74
2022/10/19 03:54:44;;;;;;;5.10;0.60;;;11.80;99.90;;;;;;5037285;28;20097;-74
2022/10/19 03:57:09;;;;;;;4.57;0.63;;;11.80;99.90;;;;;;5054434;28;20481;-74
2022/10/19 03:59:35;;;;;;;7.20;0.73;;;11.90;99.90;;;;;;5053575;28;20059;-74
2022/10/19 07:09:13;;;;;;;4.95;0.60;;;11.70;99.90;;;;;;4992218;23;20055;-70
2022/10/19 07:11:39;;;;;;;3.60;0.40;;;11.90;99.90;;;;;;4917879;29;20119;-70
2022/10/19 07:14:04;;;;;;;4.78;0.60;;;11.90;99.90;;;;;;4902439;29;20044;-70
2022/10/19 07:16:30;;;;;;;5.03;0.60;;;11.90;99.90;;;;;;4918827;29;20051;-70
2022/10/19 07:22:37;;;;;;;8.25;0.70;;;11.90;99.90;;;;;;4880045;29;20425;-69
2022/10/19 07:25:02;;;;;;;4.22;0.80;;;12.10;99.90;;;;;;4919241;29;20130;-70
2022/10/19 07:27:28;;;;;;;5.63;0.60;;;11.80;99.90;;;;;;4902258;29;20382;-70
2022/10/19 07:29:54;;;;;;;6.35;1.05;;;12.00;99.90;;;;;;4918723;29;20080;-70
2022/10/19 07:32:19;;;;;;;7.35;0.63;;;12.00;99.90;;;;;;4919206;29;20088;-70
2022/10/19 07:34:45;;;;;;;5.47;0.60;;;11.90;99.90;;;;;;4918913;29;20052;-70
2022/10/19 07:37:11;;;;;;;5.75;0.90;;;12.00;99.90;;;;;;4918162;29;20104;-70
2022/10/19 07:39:37;;;;;;;4.35;0.47;;;12.00;99.90;;;;;;4886355;29;20044;-70
2022/10/19 07:42:03;;;;;;;2.03;0.40;;;12.00;99.90;;;;;;4902045;29;20059;-70
2022/10/19 07:44:29;;;;;;;4.43;0.40;;;12.20;99.90;;;;;;4918532;29;20095;-70
2022/10/19 07:46:55;;;;;;;5.03;0.47;;;12.10;99.90;;;;;;4918632;29;20044;-70
2022/10/19 07:49:21;;;;;;;3.70;0.40;;;12.00;99.90;;;;;;4918582;29;20052;-70
2022/10/19 07:51:47;;;;;;;6.38;0.40;;;12.10;99.90;;;;;;4923174;29;20055;-70
2022/10/19 07:54:13;;;;;;;7.80;0.98;;;12.20;99.90;;;;;;4938351;29;20050;-69
2022/10/19 07:56:38;;;;;;;2.28;0.80;;;12.20;99.90;;;;;;4955902;28;20047;-71
2022/10/19 07:59:04;;;;;;;5.10;0.47;;;12.10;99.90;;;;;;4938851;29;20043;-70
2022/10/19 08:01:39;;;;;;;2.50;0.50;;;12.40;99.90;;;;;;4956468;28;20047;-70
2022/10/19 08:04:06;;;;;;;3.05;0.90;;;12.10;99.90;;;;;;4939477;29;20051;-70
2022/10/19 08:06:31;;;;;;;3.92;0.50;;;12.30;99.90;;;;;;4956222;28;20043;-70
2022/10/19 08:08:57;;;;;;;4.53;0.57;;;12.20;99.90;;;;;;4955575;28;20125;-70
2022/10/19 08:11:31;;;;;;;4.22;0.50;;;12.40;99.90;;;;;;4939030;28;20055;-74
2022/10/19 08:13:58;;;;;;;4.45;0.80;;;12.30;99.90;;;;;;4956703;28;20126;-70
2022/10/19 08:16:43;;;;;;;11.43;5.63;;;12.40;99.90;;;;;;4923475;29;20047;-71
2022/10/19 08:19:14;;;;;;;3.85;0.63;;;12.30;99.90;;;;;;4915822;29;20118;-71
2022/10/19 08:21:43;;;;;;;4.55;0.63;;;12.50;99.90;;;;;;4896482;29;20111;-71
2022/10/19 08:24:10;;;;;;;3.10;0.57;;;12.40;99.90;;;;;;4913402;29;20047;-70
2022/10/19 08:26:37;;;;;;;5.20;0.40;;;12.40;99.90;;;;;;4910903;29;20048;-70
2022/10/19 08:29:05;;;;;;;4.30;0.55;;;12.40;99.90;;;;;;4933530;29;20048;-70
2022/10/19 08:31:31;;;;;;;5.68;0.80;;;12.70;99.90;;;;;;4910620;29;20130;-70
2022/10/19 08:33:57;;;;;;;4.45;0.70;;;12.40;99.90;;;;;;4926677;29;20127;-70
2022/10/19 08:36:23;;;;;;;2.97;0.50;;;12.40;99.90;;;;;;4895785;29;20043;-71
2022/10/19 08:38:49;;;;;;;6.28;0.70;;;12.50;99.90;;;;;;4928928;29;20043;-70
2022/10/19 08:41:27;;;;;;;6.50;0.60;;;12.60;99.90;;;;;;4927986;29;20060;-70
2022/10/19 08:44:08;;;;;;;8.85;0.60;;;12.50;99.90;;;;;;4909259;29;20074;-70
2022/10/19 08:47:05;;;;;;;6.20;0.88;;;12.50;99.90;;;;;;4895058;29;20091;-70
2022/10/19 08:49:31;;;;;;;3.85;0.50;;;12.50;99.90;;;;;;4919544;29;20412;-70
2022/10/19 08:52:10;;;;;;;3.95;0.55;;;12.70;99.90;;;;;;4926886;29;20048;-70
2022/10/19 08:54:56;;;;;;;4.38;0.50;;;12.60;99.90;;;;;;4909471;29;20040;-70
2022/10/19 08:57:49;;;;;;;6.18;1.17;;;12.60;99.90;;;;;;4935065;29;20095;-70
2022/10/19 09:00:18;;;;;;;18.02;2.92;;;12.60;99.90;;;;;;4936228;29;20568;-70
2022/10/19 09:02:47;;;;;;;4.18;0.60;;;12.60;99.90;;;;;;4919550;29;20135;-70
2022/10/19 09:05:30;;;;;;;7.18;1.40;;;12.70;99.90;;;;;;4936282;29;20090;-70
2022/10/19 09:07:56;;;;;;;5.88;1.70;;;12.60;99.90;;;;;;4935955;29;20059;-71
2022/10/19 09:10:27;;;;;;;3.65;0.60;;;12.60;99.90;;;;;;4919289;29;20063;-71
2022/10/19 09:12:57;;;;;;;4.47;0.60;;;12.70;99.90;;;;;;4919927;29;20056;-71
2022/10/19 09:15:43;;;;;;;3.03;0.50;;;12.70;99.90;;;;;;4903726;29;20048;-70
2022/10/19 09:18:18;;;;;;;2.78;0.50;;;12.70;99.90;;;;;;4935523;28;20047;-70
2022/10/19 09:20:51;;;;;;;3.63;0.80;;;12.80;99.90;;;;;;4919554;29;20098;-70
2022/10/19 09:23:35;;;;;;;;;;;12.60;99.90;;;;;;4937009;29;20122;-70
2022/10/19 09:26:02;;;;;;;4.55;0.52;;;12.80;99.90;;;;;;4936088;29;19922;-71
2022/10/19 09:28:39;;;;;;;6.65;0.88;;;12.70;99.90;;;;;;4935929;29;20051;-71
2022/10/19 09:31:09;;;;;;;3.05;0.43;;;12.70;99.90;;;;;;4919269;29;20051;-71
2022/10/19 09:33:38;;;;;;;4.35;0.50;;;12.70;99.90;;;;;;4919386;29;20058;-70
2022/10/19 09:36:06;;;;;;;6.07;0.50;;;12.80;99.90;;;;;;4935997;29;20043;-71
2022/10/19 09:38:32;;;;;;;4.80;0.65;;;12.90;99.90;;;;;;4935426;29;20050;-70
2022/10/19 09:41:13;;;;;;;4.35;0.40;;;12.80;99.90;;;;;;4951046;29;20040;-71
2022/10/19 09:43:41;;;;;;;3.00;0.45;;;12.90;99.90;;;;;;4951150;28;20135;-70
2022/10/19 09:46:27;;;;;;;4.38;0.57;;;12.90;99.90;;;;;;4915862;29;20048;-73
2022/10/19 09:48:53;;;;;;;5.35;0.60;;;12.90;99.90;;;;;;4909396;29;20054;-73
2022/10/19 09:51:20;;;;;;;3.08;0.50;;;12.90;99.90;;;;;;4908235;29;20039;-73
2022/10/19 09:53:56;;;;;;;4.25;0.63;;;12.90;99.90;;;;;;4926580;29;20139;-72
2022/10/19 09:56:24;;;;;;;3.10;0.45;;;13.00;99.90;;;;;;4910120;29;20058;-72
2022/10/19 09:58:54;;;;;;;2.45;0.55;;;13.00;99.90;;;;;;4925492;29;20055;-72
2022/10/19 10:01:37;;;;;;;3.78;0.80;;;13.10;99.90;;;;;;4924829;29;20052;-73
2022/10/19 10:04:06;;;;;;;;;;;13.20;99.90;;;;;;4925329;29;20469;-72
2022/10/19 10:06:33;;;;;;;2.95;0.47;;;13.10;99.90;;;;;;4940633;29;19922;-72
2022/10/19 10:08:58;;;;;;;2.97;0.50;;;13.00;99.90;;;;;;4909311;29;20489;-72
2022/10/19 10:11:29;;;;;;;3.13;0.55;;;13.10;99.90;;;;;;4942072;29;20048;-72
2022/10/19 10:13:57;;;;;;;4.65;1.35;;;13.00;99.90;;;;;;4925622;29;20465;-72
2022/10/19 10:16:28;;;;;;;2.70;0.50;;;13.00;99.90;;;;;;4926750;29;20392;-72
2022/10/19 10:19:14;;;;;;;3.85;0.50;;;13.00;99.90;;;;;;4926050;29;20058;-72
2022/10/19 10:21:53;;;;;;;3.05;0.50;;;13.00;99.90;;;;;;4909634;29;20509;-73
2022/10/19 10:24:23;;;;;;;3.33;0.60;;;13.10;99.90;;;;;;4909876;29;20048;-72
2022/10/19 10:26:53;;;;;;;3.47;0.90;;;13.00;99.90;;;;;;4925105;29;20382;-73
2022/10/19 10:29:22;;;;;;;4.40;0.88;;;13.30;99.90;;;;;;4893614;29;20102;-72
2022/10/19 10:32:12;;;;;;;4.47;0.90;;;13.00;99.90;;;;;;4944642;29;20063;-72
2022/10/19 10:34:44;;;;;;;3.00;0.50;;;13.10;99.90;;;;;;4937871;29;20086;-71
2022/10/19 10:37:33;;;;;;;3.10;0.50;;;13.10;99.90;;;;;;4938381;29;20580;-69
2022/10/19 10:39:59;;;;;;;6.75;0.60;;;13.00;99.90;;;;;;4906724;29;20111;-69
2022/10/19 10:42:42;;;;;;;4.95;0.70;;;13.10;99.90;;;;;;4938721;29;20524;-70
2022/10/19 10:45:22;;;;;;;2.08;0.60;;;13.10;99.90;;;;;;4938755;29;20143;-70
2022/10/19 10:47:49;;;;;;;2.78;0.80;;;13.10;99.90;;;;;;4938586;29;20168;-72
2022/10/19 10:50:18;;;;;;;5.68;0.60;;;13.10;99.90;;;;;;4922281;29;20437;-71
2022/10/19 10:52:59;;;;;;;4.47;0.60;;;13.00;99.90;;;;;;4921665;29;20122;-70
2022/10/19 10:55:26;;;;;;;4.57;0.50;;;13.10;99.90;;;;;;4938657;29;20051;-70
2022/10/19 10:58:01;;;;;;;5.95;0.60;;;13.10;99.90;;;;;;4921524;29;20051;-70
2022/10/19 11:00:28;;;;;;;5.00;0.50;;;13.00;99.90;;;;;;4941218;28;20063;-71
2022/10/19 11:03:12;;;;;;;2.97;0.52;;;13.10;99.90;;;;;;4920899;29;20052;-71
2022/10/19 11:05:46;;;;;;;4.70;0.50;;;13.20;99.90;;;;;;4937897;29;20047;-70
2022/10/19 11:08:21;;;;;;;3.55;1.10;;;13.30;99.90;;;;;;4937793;29;20123;-73
2022/10/19 11:10:51;;;;;;;1.40;0.50;;;13.20;99.90;;;;;;4947274;29;20066;-81
2022/10/19 11:13:25;;;;;;;5.35;0.60;;;13.20;99.90;;;;;;4899396;29;20063;-72
2022/10/19 11:15:58;;;;;;;3.00;0.70;;;13.20;99.90;;;;;;4928615;29;20507;-71
2022/10/19 11:18:23;;;;;;;;;;;13.20;99.90;;;;;;4928314;29;20044;-71
2022/10/19 11:21:41;;;;;;;6.05;0.73;;;13.10;99.90;;;;;;4909612;29;19949;-71
2022/10/19 11:24:22;;;;;;;4.63;0.60;;;13.20;99.90;;;;;;4916409;29;20117;-76
2022/10/19 11:27:00;;;;;;;5.03;0.90;;;13.30;99.90;;;;;;4927951;29;20516;-74
2022/10/19 11:29:44;;;;;;;5.53;0.70;;;13.40;99.90;;;;;;4927507;29;20075;-71
2022/10/19 11:32:33;;;;;;;3.90;0.70;;;13.40;99.90;;;;;;4942990;29;20107;-73
2022/10/19 11:35:11;;;;;;;3.65;0.70;;;13.30;99.90;;;;;;4917648;29;20449;-71
2022/10/19 11:37:58;;;;;;;4.03;0.70;;;13.60;99.90;;;;;;4910512;29;20047;-71
2022/10/19 11:40:34;;;;;;;5.40;0.63;;;13.40;99.90;;;;;;4927597;29;20382;-71
2022/10/19 11:43:08;;;;;;;3.92;0.80;;;13.40;99.90;;;;;;4910301;29;20576;-71
2022/10/19 11:45:57;;;;;;;3.08;0.70;;;13.40;99.90;;;;;;4893879;29;20054;-71
2022/10/19 11:48:51;;;;;;;3.28;0.70;;;13.40;99.90;;;;;;4927150;29;20048;-71
2022/10/19 11:51:38;;;;;;;5.75;0.85;;;13.40;99.90;;;;;;4911842;29;20479;-69
2022/10/19 11:54:19;;;;;;;6.97;0.80;;;13.60;99.90;;;;;;4927548;29;20055;-71
2022/10/19 11:56:45;;;;;;;4.32;0.70;;;13.40;99.90;;;;;;4926943;29;20111;-72
2022/10/19 11:59:22;;;;;;;4.90;0.88;;;13.40;99.90;;;;;;4908835;29;20048;-71
2022/10/19 12:02:13;;;;;;;2.50;0.50;;;13.60;99.90;;;;;;4925858;29;20052;-71
2022/10/19 12:05:09;;;;;;;4.25;0.70;;;13.30;99.90;;;;;;4911017;29;20059;-71
2022/10/19 12:08:14;;;;;;;3.20;0.50;;;13.30;99.90;;;;;;4927940;29;20489;-70
2022/10/19 12:10:55;;;;;;;2.53;0.50;;;13.40;99.90;;;;;;4919810;29;20064;-73
2022/10/19 12:13:31;;;;;;;3.33;0.57;;;13.50;99.90;;;;;;4936167;29;20549;-72
2022/10/19 12:15:58;;;;;;;4.07;0.70;;;13.40;99.90;;;;;;4951772;29;20153;-72
2022/10/19 12:18:36;;;;;;;2.65;0.60;;;13.50;99.90;;;;;;4936670;29;20046;-70
2022/10/19 12:21:08;;;;;;;3.35;0.55;;;13.50;99.90;;;;;;4936661;29;20048;-71
2022/10/19 12:23:37;;;;;;;2.00;0.60;;;13.50;99.90;;;;;;4936528;29;20060;-71
2022/10/19 12:26:07;;;;;;;4.15;0.60;;;13.60;99.90;;;;;;4936283;29;20055;-71
2022/10/19 12:28:36;;;;;;;2.90;0.68;;;13.50;99.90;;;;;;4936273;29;20107;-70
2022/10/19 12:31:04;;;;;;;2.15;0.60;;;13.40;99.90;;;;;;4936482;29;20051;-71
2022/10/19 12:33:39;;;;;;;3.50;0.60;;;13.50;99.90;;;;;;4930570;29;20070;-74
2022/10/19 12:36:14;;;;;;;4.38;0.70;;;13.50;99.90;;;;;;4942917;29;20062;-70
2022/10/19 12:39:01;;;;;;;1.95;0.70;;;13.30;99.90;;;;;;4926909;29;20508;-71
2022/10/19 12:41:40;;;;;;;2.08;0.52;;;13.30;99.90;;;;;;4925414;29;20106;-75
2022/10/19 12:44:40;;;;;;;2.78;0.60;;;13.30;99.90;;;;;;4924284;29;20051;-71
2022/10/19 12:47:10;;;;;;;3.67;0.50;;;13.30;99.90;;;;;;4911330;29;20048;-70
2022/10/19 12:49:47;;;;;;;3.80;0.70;;;13.30;99.90;;;;;;4927818;29;20549;-71
2022/10/19 12:52:32;;;;;;;2.75;0.70;;;13.20;99.90;;;;;;4907738;29;20051;-71
2022/10/19 12:55:33;;;;;;;6.10;0.60;;;13.20;99.90;;;;;;4925243;29;20043;-74
2022/10/19 12:58:12;;;;;;;3.95;0.77;;;13.30;99.90;;;;;;4927537;29;20044;-71
2022/10/19 13:00:37;;;;;;;7.03;0.70;;;13.10;99.90;;;;;;4927469;29;20051;-71
2022/10/19 13:03:12;;;;;;;4.43;0.57;;;13.20;99.90;;;;;;4893517;29;20099;-71
2022/10/19 13:05:38;;;;;;;5.00;0.80;;;13.20;99.90;;;;;;4924785;29;20048;-71
2022/10/19 13:08:06;;;;;;;3.05;0.75;;;13.30;99.90;;;;;;4924734;29;20370;-71
2022/10/19 13:10:32;;;;;;;2.80;0.50;;;13.40;99.90;;;;;;4925417;29;20159;-71
2022/10/19 13:12:59;;;;;;;5.65;0.70;;;13.50;99.90;;;;;;4910303;29;20062;-71
2022/10/19 13:15:34;;;;;;;2.90;0.70;;;13.60;99.90;;;;;;4927064;29;20721;-71
2022/10/19 13:18:41;;;;;;;2.33;0.60;;;13.50;99.90;;;;;;4926830;29;20054;-71
2022/10/19 13:21:08;;;;;;;2.45;0.50;;;13.60;99.90;;;;;;4910195;29;20103;-71
2022/10/19 13:23:37;;;;;;;2.88;0.68;;;13.60;99.90;;;;;;4926476;29;20100;-70
2022/10/19 13:26:23;;;;;;;2.30;0.80;;;13.60;99.90;;;;;;4925147;29;20054;-70
2022/10/19 13:28:53;;;;;;;4.90;0.45;;;13.70;99.90;;;;;;4925920;29;20130;-71
2022/10/19 13:31:26;;;;;;;2.40;0.60;;;13.60;99.90;;;;;;4927387;29;20062;-71
2022/10/19 13:33:51;;;;;;;;;;;13.70;99.90;;;;;;4909592;29;20505;-72
2022/10/19 13:36:18;;;;;;;4.10;0.60;;;13.80;99.90;;;;;;4924625;29;19927;-71
2022/10/19 13:39:04;;;;;;;5.07;0.60;;;13.80;99.90;;;;;;4925952;29;20126;-73
2022/10/19 13:41:33;;;;;;;3.47;0.70;;;13.80;99.90;;;;;;4925609;29;20047;-71
2022/10/19 13:44:14;;;;;;;4.25;2.03;;;13.80;99.90;;;;;;4910412;29;20088;-71
2022/10/19 13:47:15;;;;;;;6.00;0.65;;;13.80;99.90;;;;;;4907795;29;20103;-71
2022/10/19 13:49:58;;;;;;;3.85;0.70;;;13.70;99.90;;;;;;4927754;29;20515;-72
2022/10/19 13:52:24;;;;;;;3.15;0.60;;;13.70;99.90;;;;;;4926753;29;20044;-72
2022/10/19 13:55:16;;;;;;;3.80;0.70;;;13.70;99.90;;;;;;4925862;29;20055;-71
2022/10/19 13:58:00;;;;;;;3.70;0.70;;;13.70;99.90;;;;;;4889520;29;20052;-71
2022/10/19 14:01:02;;;;;;;5.75;0.80;;;13.70;99.90;;;;;;4926974;29;20099;-71
2022/10/19 14:03:59;;;;;;;3.42;0.90;;;13.60;99.90;;;;;;4927522;29;20056;-71
2022/10/19 14:06:42;;;;;;;2.78;0.75;;;13.60;99.90;;;;;;4929818;29;20067;-71
2022/10/19 14:09:26;;;;;;;3.13;0.80;;;13.50;99.90;;;;;;4914484;29;20083;-71
2022/10/19 14:11:56;;;;;;;8.55;1.20;;;13.50;99.90;;;;;;4925751;29;20062;-71
2022/10/19 14:14:24;;;;;;;5.47;1.40;;;13.50;99.90;;;;;;4929516;29;20138;-71
2022/10/19 14:16:56;;;;;;;4.72;1.40;;;13.50;99.90;;;;;;4912449;29;20066;-71
2022/10/19 14:19:27;;;;;;;3.88;1.58;;;13.50;99.90;;;;;;4928125;29;20048;-71
2022/10/19 14:21:55;;;;;;;4.72;1.63;;;13.50;99.90;;;;;;4911998;29;20055;-71
2022/10/19 14:24:34;;;;;;;3.88;1.58;;;13.50;99.90;;;;;;4932493;29;20047;-71
2022/10/19 14:27:06;;;;;;;4.30;1.83;;;13.50;99.90;;;;;;4913009;29;20039;-71
2022/10/19 14:29:44;;;;;;;4.32;1.45;;;13.40;99.90;;;;;;4910069;29;20094;-70
2022/10/19 14:32:11;;;;;;;4.60;1.85;;;13.50;99.90;;;;;;4924995;29;20400;-73
2022/10/19 14:34:41;;;;;;;3.90;2.50;;;13.40;99.90;;;;;;4912573;29;20052;-71
2022/10/19 14:37:20;;;;;;;8.32;1.90;;;13.40;99.90;;;;;;4927024;29;20148;-73
2022/10/19 14:40:07;;;;;;;4.85;1.80;;;13.40;99.90;;;;;;4925601;29;20111;-75
2022/10/19 14:42:42;;;;;;;7.00;1.88;;;13.50;99.90;;;;;;4912816;29;20457;-72
2022/10/19 14:45:13;;;;;;;4.57;2.13;;;13.40;99.90;;;;;;4908520;29;20055;-71
2022/10/19 14:47:54;;;;;;;6.53;2.03;;;13.40;99.90;;;;;;4909674;29;20054;-73
2022/10/19 14:50:30;;;;;;;4.50;1.70;;;13.40;99.90;;;;;;4926478;29;20114;-74
2022/10/19 14:53:12;;;;;;;4.22;1.85;;;13.30;99.90;;;;;;4923847;29;20450;-72
2022/10/19 14:55:40;;;;;;;3.58;1.58;;;13.30;99.90;;;;;;4926632;29;20052;-72
2022/10/19 14:58:14;;;;;;;4.75;1.95;;;13.30;99.90;;;;;;4923123;29;20362;-72
2022/10/19 15:00:41;;;;;;;3.15;1.83;;;13.20;99.90;;;;;;4926347;29;20055;-74
2022/10/19 15:03:10;;;;;;;5.72;2.25;;;13.30;99.90;;;;;;4908545;29;20362;-71
2022/10/19 15:05:44;;;;;;;5.85;2.25;;;13.20;99.90;;;;;;4924404;29;20179;-74
2022/10/19 15:08:41;;;;;;;5.18;2.80;;;13.20;99.90;;;;;;4909776;29;20447;-74
2022/10/19 15:11:19;;;;;;;5.53;3.53;;;13.10;99.90;;;;;;4918660;29;20064;-74
2022/10/19 15:13:46;;;;;;;4.38;3.83;;;13.20;99.90;;;;;;4890624;29;20846;-71
2022/10/19 15:16:45;;;;;;;6.15;3.78;;;13.20;99.90;;;;;;4924668;29;20079;-71
2022/10/19 15:19:27;;;;;;;8.20;4.45;;;13.10;99.90;;;;;;4911003;29;20040;-73
2022/10/19 15:22:13;;;;;;;7.70;4.35;;;13.10;99.90;;;;;;4925905;29;20515;-71
2022/10/19 15:25:04;;;;;;;6.78;3.95;;;13.00;99.90;;;;;;4924589;29;20059;-71
2022/10/19 15:27:36;;;;;;;5.43;3.70;;;13.00;99.90;;;;;;4908029;29;20041;-71
2022/10/19 15:30:30;;;;;;;7.50;3.78;;;13.00;99.90;;;;;;4923919;29;20076;-72
2022/10/19 15:33:14;;;;;;;6.65;4.00;;;13.00;99.90;;;;;;4925747;29;20047;-71
2022/10/19 15:35:43;;;;;;;7.10;4.40;;;12.90;99.90;;;;;;4939841;29;20488;-71
2022/10/19 15:38:24;;;;;;;6.03;3.63;;;12.90;99.90;;;;;;4923703;29;20071;-71
2022/10/19 15:40:56;;;;;;;6.70;3.47;;;12.90;99.90;;;;;;4925551;29;20047;-71
2022/10/19 15:43:31;;;;;;;7.70;3.50;;;12.80;99.90;;;;;;4925662;29;20543;-72
2022/10/19 15:46:00;;;;;;;6.57;3.60;;;13.00;99.90;;;;;;4908761;29;20378;-72
2022/10/19 15:48:43;;;;;;;6.15;3.45;;;12.90;99.90;;;;;;4924243;29;20050;-71
2022/10/19 15:51:23;;;;;;;4.45;2.85;;;12.80;99.90;;;;;;4924069;29;20040;-71
2022/10/19 15:53:53;;;;;;;7.22;3.33;;;12.70;99.90;;;;;;4939204;29;20051;-73
2022/10/19 15:56:20;;;;;;;3.92;3.17;;;12.60;99.90;;;;;;4923150;29;20074;-72
2022/10/19 15:58:54;;;;;;;5.70;2.58;;;12.70;99.90;;;;;;4924142;29;20036;-80
2022/10/19 16:01:29;;;;;;;6.40;2.83;;;12.70;99.90;;;;;;4925243;29;20137;-74
2022/10/19 16:03:54;;;;;;;5.75;3.03;;;12.70;99.90;;;;;;4907451;29;20055;-73
2022/10/19 16:06:23;;;;;;;5.28;3.30;;;12.70;99.90;;;;;;4906187;29;20040;-73
2022/10/19 16:08:52;;;;;;;6.18;3.53;;;12.50;99.90;;;;;;4923682;29;20067;-73
2022/10/19 16:11:21;;;;;;;8.82;3.30;;;12.50;99.90;;;;;;4907970;29;20491;-76
2022/10/19 16:13:48;;;;;;;7.82;4.20;;;12.50;99.90;;;;;;4906888;29;20086;-76
2022/10/19 16:16:24;;;;;;;4.57;2.67;;;12.40;99.90;;;;;;4906254;29;20384;-74
2022/10/19 16:18:50;;;;;;;4.20;2.22;;;12.30;99.90;;;;;;4923650;29;20032;-72
2022/10/19 16:21:18;;;;;;;5.85;3.45;;;12.40;99.90;;;;;;4924573;29;20063;-73
2022/10/19 16:23:43;;;;;;;5.43;2.90;;;12.40;99.90;;;;;;4905876;29;20440;-72
2022/10/19 16:26:12;;;;;;;5.65;3.72;;;12.30;99.90;;;;;;4921928;29;20067;-74
2022/10/19 16:28:38;;;;;;;8.18;4.25;;;12.30;99.90;;;;;;4891809;29;20044;-73
2022/10/19 16:31:03;;;;;;;3.95;3.53;;;12.20;99.90;;;;;;4922957;29;20492;-73